sensor_id;sensor_type;location;lat;lon;timestamp;temperature;humidity
51839;DHT22;37886;53.174;6.368;2023-02-01T00:01:58;6.50;99.90
51839;DHT22;37886;53.174;6.368;2023-02-01T00:04:23;6.50;99.90
51839;DHT22;37886;53.174;6.368;2023-02-01T00:06:49;6.50;99.90
51839;DHT22;37886;53.174;6.368;2023-02-01T00:09:15;6.50;99.90
51839;DHT22;37886;53.174;6.368;2023-02-01T00:11:40;6.50;99.90
51839;DHT22;37886;53.174;6.368;2023-02-01T00:14:06;6.40;99.90
51839;DHT22;37886;53.174;6.368;2023-02-01T00:16:32;6.40;99.90
51839;DHT22;37886;53.174;6.368;2023-02-01T00:19:12;6.40;99.90
51839;DHT22;37886;53.174;6.368;2023-02-01T00:21:38;6.40;99.90
51839;DHT22;37886;53.174;6.368;2023-02-01T00:24:04;6.40;99.90
51839;DHT22;37886;53.174;6.368;2023-02-01T00:26:36;6.40;99.90
51839;DHT22;37886;53.174;6.368;2023-02-01T00:29:04;6.50;99.90
51839;DHT22;37886;53.174;6.368;2023-02-01T00:31:30;6.40;99.90
51839;DHT22;37886;53.174;6.368;2023-02-01T00:33:56;6.40;99.90
51839;DHT22;37886;53.174;6.368;2023-02-01T00:36:22;6.40;99.90
51839;DHT22;37886;53.174;6.368;2023-02-01T00:38:47;6.40;99.90
51839;DHT22;37886;53.174;6.368;2023-02-01T00:41:14;6.50;99.90
51839;DHT22;37886;53.174;6.368;2023-02-01T00:43:41;6.50;99.90
51839;DHT22;37886;53.174;6.368;2023-02-01T00:46:07;6.50;99.90
51839;DHT22;37886;53.174;6.368;2023-02-01T00:48:33;6.50;99.90
51839;DHT22;37886;53.174;6.368;2023-02-01T00:51:02;6.40;99.90
51839;DHT22;37886;53.174;6.368;2023-02-01T00:53:29;6.40;99.90
51839;DHT22;37886;53.174;6.368;2023-02-01T00:55:55;6.40;99.90
51839;DHT22;37886;53.174;6.368;2023-02-01T00:58:22;6.40;99.90
51839;DHT22;37886;53.174;6.368;2023-02-01T01:00:49;6.40;99.90
51839;DHT22;37886;53.174;6.368;2023-02-01T01:03:15;6.50;99.90
51839;DHT22;37886;53.174;6.368;2023-02-01T01:05:47;6.50;99.90
51839;DHT22;37886;53.174;6.368;2023-02-01T01:08:15;6.50;99.90
51839;DHT22;37886;53.174;6.368;2023-02-01T01:10:41;6.50;99.90
51839;DHT22;37886;53.174;6.368;2023-02-01T01:13:08;6.50;99.90
51839;DHT22;37886;53.174;6.368;2023-02-01T01:15:38;6.50;99.90
51839;DHT22;37886;53.174;6.368;2023-02-01T01:18:04;6.50;99.90
51839;DHT22;37886;53.174;6.368;2023-02-01T01:20:30;6.50;99.90
51839;DHT22;37886;53.174;6.368;2023-02-01T01:22:55;6.50;99.90
51839;DHT22;37886;53.174;6.368;2023-02-01T01:25:21;6.50;99.90
51839;DHT22;37886;53.174;6.368;2023-02-01T01:27:47;6.50;99.90
51839;DHT22;37886;53.174;6.368;2023-02-01T01:30:13;6.40;99.90
51839;DHT22;37886;53.174;6.368;2023-02-01T01:32:39;6.50;99.90
51839;DHT22;37886;53.174;6.368;2023-02-01T01:35:05;6.60;99.90
51839;DHT22;37886;53.174;6.368;2023-02-01T01:37:31;6.50;99.90
51839;DHT22;37886;53.174;6.368;2023-02-01T01:39:57;6.60;99.90
51839;DHT22;37886;53.174;6.368;2023-02-01T01:42:23;6.60;99.90
51839;DHT22;37886;53.174;6.368;2023-02-01T01:45:05;6.60;99.90
51839;DHT22;37886;53.174;6.368;2023-02-01T01:47:41;6.50;99.90
51839;DHT22;37886;53.174;6.368;2023-02-01T01:50:11;6.40;99.90
51839;DHT22;37886;53.174;6.368;2023-02-01T01:52:39;6.30;99.90
51839;DHT22;37886;53.174;6.368;2023-02-01T01:55:07;6.30;99.90
51839;DHT22;37886;53.174;6.368;2023-02-01T01:57:37;6.30;99.90
51839;DHT22;37886;53.174;6.368;2023-02-01T02:00:11;6.20;99.90
51839;DHT22;37886;53.174;6.368;2023-02-01T02:02:38;6.20;99.90
51839;DHT22;37886;53.174;6.368;2023-02-01T02:05:04;6.10;99.90
51839;DHT22;37886;53.174;6.368;2023-02-01T02:07:35;6.10;99.90
51839;DHT22;37886;53.174;6.368;2023-02-01T02:10:03;6.10;99.90
51839;DHT22;37886;53.174;6.368;2023-02-01T02:12:31;6.10;99.90
51839;DHT22;37886;53.174;6.368;2023-02-01T02:14:58;6.10;99.90
51839;DHT22;37886;53.174;6.368;2023-02-01T02:17:39;6.00;99.90
51839;DHT22;37886;53.174;6.368;2023-02-01T02:20:49;6.10;99.90
51839;DHT22;37886;53.174;6.368;2023-02-01T02:34:32;5.90;99.90
51839;DHT22;37886;53.174;6.368;2023-02-01T02:45:32;6.10;99.90
51839;DHT22;37886;53.174;6.368;2023-02-01T02:48:36;6.10;99.90
51839;DHT22;37886;53.174;6.368;2023-02-01T02:51:20;6.10;99.90
51839;DHT22;37886;53.174;6.368;2023-02-01T02:54:12;6.10;99.90
51839;DHT22;37886;53.174;6.368;2023-02-01T02:56:58;6.20;99.90
51839;DHT22;37886;53.174;6.368;2023-02-01T02:59:45;6.30;99.90
51839;DHT22;37886;53.174;6.368;2023-02-01T03:02:31;6.30;99.90
51839;DHT22;37886;53.174;6.368;2023-02-01T03:05:15;6.30;99.90
51839;DHT22;37886;53.174;6.368;2023-02-01T03:18:28;6.50;99.90
51839;DHT22;37886;53.174;6.368;2023-02-01T03:20:55;6.50;99.90
51839;DHT22;37886;53.174;6.368;2023-02-01T03:23:27;6.50;99.90
51839;DHT22;37886;53.174;6.368;2023-02-01T03:25:56;6.40;99.90
51839;DHT22;37886;53.174;6.368;2023-02-01T03:28:23;6.40;99.90
51839;DHT22;37886;53.174;6.368;2023-02-01T03:30:50;6.50;99.90
51839;DHT22;37886;53.174;6.368;2023-02-01T03:33:19;6.40;99.90
51839;DHT22;37886;53.174;6.368;2023-02-01T03:41:41;6.40;99.90
51839;DHT22;37886;53.174;6.368;2023-02-01T03:44:16;6.40;99.90
51839;DHT22;37886;53.174;6.368;2023-02-01T03:46:59;6.40;99.90
51839;DHT22;37886;53.174;6.368;2023-02-01T03:52:00;6.40;99.90
51839;DHT22;37886;53.174;6.368;2023-02-01T03:54:30;6.40;99.90
51839;DHT22;37886;53.174;6.368;2023-02-01T03:56:59;6.40;99.90
51839;DHT22;37886;53.174;6.368;2023-02-01T03:59:26;6.50;99.90
51839;DHT22;37886;53.174;6.368;2023-02-01T04:01:52;6.40;99.90
51839;DHT22;37886;53.174;6.368;2023-02-01T04:04:18;6.30;99.90
51839;DHT22;37886;53.174;6.368;2023-02-01T04:06:48;6.30;99.90
51839;DHT22;37886;53.174;6.368;2023-02-01T04:09:14;6.40;99.90
51839;DHT22;37886;53.174;6.368;2023-02-01T04:11:39;6.40;99.90
51839;DHT22;37886;53.174;6.368;2023-02-01T04:14:05;6.40;99.90
51839;DHT22;37886;53.174;6.368;2023-02-01T04:16:31;6.50;99.90
51839;DHT22;37886;53.174;6.368;2023-02-01T04:18:57;6.50;99.90
51839;DHT22;37886;53.174;6.368;2023-02-01T04:21:25;6.50;99.90
51839;DHT22;37886;53.174;6.368;2023-02-01T04:23:50;6.60;99.90
51839;DHT22;37886;53.174;6.368;2023-02-01T04:26:16;6.50;99.90
51839;DHT22;37886;53.174;6.368;2023-02-01T04:28:42;6.50;99.90
51839;DHT22;37886;53.174;6.368;2023-02-01T04:31:08;6.50;99.90
51839;DHT22;37886;53.174;6.368;2023-02-01T04:33:34;6.40;99.90
51839;DHT22;37886;53.174;6.368;2023-02-01T04:35:59;6.30;99.90
51839;DHT22;37886;53.174;6.368;2023-02-01T04:38:25;6.30;99.90
51839;DHT22;37886;53.174;6.368;2023-02-01T04:40:51;6.40;99.90
51839;DHT22;37886;53.174;6.368;2023-02-01T04:43:17;6.40;99.90
51839;DHT22;37886;53.174;6.368;2023-02-01T04:45:50;6.40;99.90
51839;DHT22;37886;53.174;6.368;2023-02-01T04:48:16;6.40;99.90
51839;DHT22;37886;53.174;6.368;2023-02-01T04:50:43;6.40;99.90
51839;DHT22;37886;53.174;6.368;2023-02-01T04:53:11;6.40;99.90
51839;DHT22;37886;53.174;6.368;2023-02-01T04:55:37;6.30;99.90
51839;DHT22;37886;53.174;6.368;2023-02-01T04:58:02;6.20;99.90
51839;DHT22;37886;53.174;6.368;2023-02-01T05:00:28;6.30;99.90
51839;DHT22;37886;53.174;6.368;2023-02-01T05:02:53;6.30;99.90
51839;DHT22;37886;53.174;6.368;2023-02-01T05:05:19;6.40;99.90
51839;DHT22;37886;53.174;6.368;2023-02-01T05:07:46;6.40;99.90
51839;DHT22;37886;53.174;6.368;2023-02-01T05:10:12;6.40;99.90
51839;DHT22;37886;53.174;6.368;2023-02-01T05:12:37;6.40;99.90
51839;DHT22;37886;53.174;6.368;2023-02-01T05:15:22;6.50;99.90
51839;DHT22;37886;53.174;6.368;2023-02-01T05:17:47;6.40;99.90
51839;DHT22;37886;53.174;6.368;2023-02-01T05:20:13;6.40;99.90
51839;DHT22;37886;53.174;6.368;2023-02-01T05:22:40;6.50;99.90
51839;DHT22;37886;53.174;6.368;2023-02-01T05:25:06;6.50;99.90
51839;DHT22;37886;53.174;6.368;2023-02-01T05:27:32;6.50;99.90
51839;DHT22;37886;53.174;6.368;2023-02-01T05:29:58;6.50;99.90
51839;DHT22;37886;53.174;6.368;2023-02-01T05:32:23;6.60;99.90
51839;DHT22;37886;53.174;6.368;2023-02-01T05:34:49;6.60;99.90
51839;DHT22;37886;53.174;6.368;2023-02-01T05:37:15;6.70;99.90
51839;DHT22;37886;53.174;6.368;2023-02-01T05:39:40;6.70;99.90
51839;DHT22;37886;53.174;6.368;2023-02-01T05:42:06;6.70;99.90
51839;DHT22;37886;53.174;6.368;2023-02-01T05:44:32;6.80;99.90
51839;DHT22;37886;53.174;6.368;2023-02-01T05:46:57;6.90;99.90
51839;DHT22;37886;53.174;6.368;2023-02-01T05:49:23;6.80;99.90
51839;DHT22;37886;53.174;6.368;2023-02-01T05:51:49;6.70;99.90
51839;DHT22;37886;53.174;6.368;2023-02-01T05:54:15;6.70;99.90
51839;DHT22;37886;53.174;6.368;2023-02-01T05:56:41;6.70;99.90
51839;DHT22;37886;53.174;6.368;2023-02-01T05:59:06;6.70;99.90
51839;DHT22;37886;53.174;6.368;2023-02-01T06:01:33;6.70;99.90
51839;DHT22;37886;53.174;6.368;2023-02-01T06:03:58;6.70;99.90
51839;DHT22;37886;53.174;6.368;2023-02-01T06:06:24;6.70;99.90
51839;DHT22;37886;53.174;6.368;2023-02-01T06:08:50;6.70;99.90
51839;DHT22;37886;53.174;6.368;2023-02-01T06:11:15;6.70;99.90
51839;DHT22;37886;53.174;6.368;2023-02-01T06:13:41;6.70;99.90
51839;DHT22;37886;53.174;6.368;2023-02-01T06:16:07;6.60;99.90
51839;DHT22;37886;53.174;6.368;2023-02-01T06:18:34;6.50;99.90
51839;DHT22;37886;53.174;6.368;2023-02-01T06:21:00;6.50;99.90
51839;DHT22;37886;53.174;6.368;2023-02-01T06:23:26;6.40;99.90
51839;DHT22;37886;53.174;6.368;2023-02-01T06:25:57;6.50;99.90
51839;DHT22;37886;53.174;6.368;2023-02-01T06:28:24;6.30;99.90
51839;DHT22;37886;53.174;6.368;2023-02-01T06:30:50;6.40;99.90
51839;DHT22;37886;53.174;6.368;2023-02-01T06:33:16;6.40;99.90
51839;DHT22;37886;53.174;6.368;2023-02-01T06:35:45;6.40;99.90
51839;DHT22;37886;53.174;6.368;2023-02-01T06:38:11;6.40;99.90
51839;DHT22;37886;53.174;6.368;2023-02-01T06:40:38;6.50;99.90
51839;DHT22;37886;53.174;6.368;2023-02-01T06:43:03;6.40;99.90
51839;DHT22;37886;53.174;6.368;2023-02-01T06:45:29;6.50;99.90
51839;DHT22;37886;53.174;6.368;2023-02-01T06:47:55;6.50;99.90
51839;DHT22;37886;53.174;6.368;2023-02-01T06:50:21;6.50;99.90
51839;DHT22;37886;53.174;6.368;2023-02-01T06:52:47;6.60;99.90
51839;DHT22;37886;53.174;6.368;2023-02-01T06:55:12;6.60;99.90
51839;DHT22;37886;53.174;6.368;2023-02-01T06:57:39;6.60;99.90
51839;DHT22;37886;53.174;6.368;2023-02-01T07:00:05;6.60;99.90
51839;DHT22;37886;53.174;6.368;2023-02-01T07:02:31;6.60;99.90
51839;DHT22;37886;53.174;6.368;2023-02-01T07:04:57;6.60;99.90
51839;DHT22;37886;53.174;6.368;2023-02-01T07:07:22;6.60;99.90
51839;DHT22;37886;53.174;6.368;2023-02-01T07:09:51;6.70;99.90
51839;DHT22;37886;53.174;6.368;2023-02-01T07:12:22;6.70;99.90
51839;DHT22;37886;53.174;6.368;2023-02-01T07:14:48;6.60;99.90
51839;DHT22;37886;53.174;6.368;2023-02-01T07:17:13;6.60;99.90
51839;DHT22;37886;53.174;6.368;2023-02-01T07:19:39;6.70;99.90
51839;DHT22;37886;53.174;6.368;2023-02-01T07:22:05;6.60;99.90
51839;DHT22;37886;53.174;6.368;2023-02-01T07:24:30;6.60;99.90
51839;DHT22;37886;53.174;6.368;2023-02-01T07:26:56;6.60;99.90
51839;DHT22;37886;53.174;6.368;2023-02-01T07:29:22;6.60;99.90
51839;DHT22;37886;53.174;6.368;2023-02-01T07:31:48;6.50;99.90
51839;DHT22;37886;53.174;6.368;2023-02-01T07:34:13;6.50;99.90
51839;DHT22;37886;53.174;6.368;2023-02-01T07:36:39;6.50;99.90
51839;DHT22;37886;53.174;6.368;2023-02-01T07:39:05;6.60;99.90
51839;DHT22;37886;53.174;6.368;2023-02-01T07:41:30;6.60;99.90
51839;DHT22;37886;53.174;6.368;2023-02-01T07:43:56;6.60;99.90
51839;DHT22;37886;53.174;6.368;2023-02-01T07:46:22;6.50;99.90
51839;DHT22;37886;53.174;6.368;2023-02-01T07:48:48;6.50;99.90
51839;DHT22;37886;53.174;6.368;2023-02-01T07:51:16;6.50;99.90
51839;DHT22;37886;53.174;6.368;2023-02-01T07:53:44;6.50;99.90
51839;DHT22;37886;53.174;6.368;2023-02-01T07:56:12;6.60;99.90
51839;DHT22;37886;53.174;6.368;2023-02-01T07:58:39;6.60;99.90
51839;DHT22;37886;53.174;6.368;2023-02-01T08:01:04;6.50;99.90
51839;DHT22;37886;53.174;6.368;2023-02-01T08:03:49;6.60;99.90
51839;DHT22;37886;53.174;6.368;2023-02-01T08:06:15;6.50;99.90
51839;DHT22;37886;53.174;6.368;2023-02-01T08:08:41;6.50;99.90
51839;DHT22;37886;53.174;6.368;2023-02-01T08:11:10;6.60;99.90
51839;DHT22;37886;53.174;6.368;2023-02-01T08:13:36;6.60;99.90
51839;DHT22;37886;53.174;6.368;2023-02-01T08:16:05;6.60;99.90
51839;DHT22;37886;53.174;6.368;2023-02-01T08:18:31;6.60;99.90
51839;DHT22;37886;53.174;6.368;2023-02-01T08:21:15;6.70;99.90
51839;DHT22;37886;53.174;6.368;2023-02-01T08:23:42;6.80;99.90
51839;DHT22;37886;53.174;6.368;2023-02-01T08:28:45;6.70;99.90
51839;DHT22;37886;53.174;6.368;2023-02-01T08:31:13;6.70;99.90
51839;DHT22;37886;53.174;6.368;2023-02-01T08:33:43;6.70;99.90
51839;DHT22;37886;53.174;6.368;2023-02-01T08:36:10;6.70;99.90
51839;DHT22;37886;53.174;6.368;2023-02-01T08:38:38;6.70;99.90
51839;DHT22;37886;53.174;6.368;2023-02-01T08:41:13;6.70;99.90
51839;DHT22;37886;53.174;6.368;2023-02-01T08:43:39;6.70;99.90
51839;DHT22;37886;53.174;6.368;2023-02-01T08:46:06;6.70;99.90
51839;DHT22;37886;53.174;6.368;2023-02-01T08:48:32;6.70;99.90
51839;DHT22;37886;53.174;6.368;2023-02-01T08:51:06;6.70;99.90
51839;DHT22;37886;53.174;6.368;2023-02-01T08:53:33;6.70;99.90
51839;DHT22;37886;53.174;6.368;2023-02-01T08:55:58;6.70;99.90
51839;DHT22;37886;53.174;6.368;2023-02-01T08:58:25;6.70;99.90
51839;DHT22;37886;53.174;6.368;2023-02-01T09:00:51;6.70;99.90
51839;DHT22;37886;53.174;6.368;2023-02-01T09:03:17;6.70;99.90
51839;DHT22;37886;53.174;6.368;2023-02-01T09:05:43;6.70;99.90
51839;DHT22;37886;53.174;6.368;2023-02-01T09:08:09;6.60;99.90
51839;DHT22;37886;53.174;6.368;2023-02-01T09:10:35;6.70;99.90
51839;DHT22;37886;53.174;6.368;2023-02-01T09:13:01;6.60;99.90
51839;DHT22;37886;53.174;6.368;2023-02-01T09:15:28;6.70;99.90
51839;DHT22;37886;53.174;6.368;2023-02-01T09:17:54;6.80;99.90
51839;DHT22;37886;53.174;6.368;2023-02-01T09:20:19;6.70;99.90
51839;DHT22;37886;53.174;6.368;2023-02-01T09:22:50;6.70;99.90
51839;DHT22;37886;53.174;6.368;2023-02-01T09:25:17;6.70;99.90
51839;DHT22;37886;53.174;6.368;2023-02-01T09:27:42;6.70;99.90
51839;DHT22;37886;53.174;6.368;2023-02-01T09:30:09;6.70;99.90
51839;DHT22;37886;53.174;6.368;2023-02-01T09:32:35;6.70;99.90
51839;DHT22;37886;53.174;6.368;2023-02-01T09:35:01;6.80;99.90
51839;DHT22;37886;53.174;6.368;2023-02-01T09:37:27;6.90;99.90
51839;DHT22;37886;53.174;6.368;2023-02-01T09:39:53;6.90;99.90
51839;DHT22;37886;53.174;6.368;2023-02-01T09:47:57;6.70;99.90
51839;DHT22;37886;53.174;6.368;2023-02-01T09:50:32;6.70;99.90
51839;DHT22;37886;53.174;6.368;2023-02-01T09:53:02;6.60;99.90
51839;DHT22;37886;53.174;6.368;2023-02-01T09:55:36;6.70;99.90
51839;DHT22;37886;53.174;6.368;2023-02-01T09:58:18;6.70;99.90
51839;DHT22;37886;53.174;6.368;2023-02-01T10:00:52;6.70;99.90
51839;DHT22;37886;53.174;6.368;2023-02-01T10:03:18;6.60;99.90
51839;DHT22;37886;53.174;6.368;2023-02-01T10:09:00;6.50;99.90
51839;DHT22;37886;53.174;6.368;2023-02-01T10:11:54;6.60;99.90
51839;DHT22;37886;53.174;6.368;2023-02-01T10:17:23;6.60;99.90
51839;DHT22;37886;53.174;6.368;2023-02-01T10:19:55;6.60;99.90
51839;DHT22;37886;53.174;6.368;2023-02-01T10:22:42;6.60;99.90
51839;DHT22;37886;53.174;6.368;2023-02-01T10:25:17;6.50;99.90
51839;DHT22;37886;53.174;6.368;2023-02-01T10:27:49;6.60;99.90
51839;DHT22;37886;53.174;6.368;2023-02-01T10:30:20;6.70;99.90
51839;DHT22;37886;53.174;6.368;2023-02-01T10:33:01;6.80;99.90
51839;DHT22;37886;53.174;6.368;2023-02-01T10:35:34;6.90;99.90
51839;DHT22;37886;53.174;6.368;2023-02-01T10:38:02;7.00;99.90
51839;DHT22;37886;53.174;6.368;2023-02-01T10:40:28;7.00;99.90
51839;DHT22;37886;53.174;6.368;2023-02-01T10:43:00;7.10;99.90
51839;DHT22;37886;53.174;6.368;2023-02-01T10:45:29;7.10;99.90
51839;DHT22;37886;53.174;6.368;2023-02-01T10:47:57;7.10;99.90
51839;DHT22;37886;53.174;6.368;2023-02-01T10:55:48;7.00;99.90
51839;DHT22;37886;53.174;6.368;2023-02-01T10:58:26;6.90;99.90
51839;DHT22;37886;53.174;6.368;2023-02-01T11:01:00;6.90;99.90
51839;DHT22;37886;53.174;6.368;2023-02-01T11:05:56;7.10;99.90
51839;DHT22;37886;53.174;6.368;2023-02-01T11:08:22;7.10;99.90
51839;DHT22;37886;53.174;6.368;2023-02-01T11:10:58;7.20;99.90
51839;DHT22;37886;53.174;6.368;2023-02-01T11:13:29;7.20;99.90
51839;DHT22;37886;53.174;6.368;2023-02-01T11:15:57;7.10;99.90
51839;DHT22;37886;53.174;6.368;2023-02-01T11:18:31;6.90;99.90
51839;DHT22;37886;53.174;6.368;2023-02-01T11:20:59;6.90;99.90
51839;DHT22;37886;53.174;6.368;2023-02-01T11:23:27;7.00;99.90
51839;DHT22;37886;53.174;6.368;2023-02-01T11:25:59;7.00;99.90
51839;DHT22;37886;53.174;6.368;2023-02-01T11:28:30;7.10;99.90
51839;DHT22;37886;53.174;6.368;2023-02-01T11:30:57;7.20;99.90
51839;DHT22;37886;53.174;6.368;2023-02-01T11:33:29;7.30;99.90
51839;DHT22;37886;53.174;6.368;2023-02-01T11:36:07;7.30;99.90
51839;DHT22;37886;53.174;6.368;2023-02-01T11:38:34;7.30;99.90
51839;DHT22;37886;53.174;6.368;2023-02-01T11:43:59;7.00;99.90
51839;DHT22;37886;53.174;6.368;2023-02-01T11:46:32;7.10;99.90
51839;DHT22;37886;53.174;6.368;2023-02-01T11:49:22;7.20;99.90
51839;DHT22;37886;53.174;6.368;2023-02-01T11:54:40;7.60;99.90
51839;DHT22;37886;53.174;6.368;2023-02-01T11:57:42;7.70;99.90
51839;DHT22;37886;53.174;6.368;2023-02-01T12:08:40;7.90;99.90
51839;DHT22;37886;53.174;6.368;2023-02-01T12:11:17;7.90;99.90
51839;DHT22;37886;53.174;6.368;2023-02-01T12:33:21;8.20;99.90
51839;DHT22;37886;53.174;6.368;2023-02-01T12:41:19;8.10;99.90
51839;DHT22;37886;53.174;6.368;2023-02-01T12:44:53;8.30;99.90
51839;DHT22;37886;53.174;6.368;2023-02-01T12:46:51;8.30;99.90
51839;DHT22;37886;53.174;6.368;2023-02-01T12:49:19;8.30;99.90
51839;DHT22;37886;53.174;6.368;2023-02-01T12:52:02;8.30;99.90
51839;DHT22;37886;53.174;6.368;2023-02-01T12:54:46;8.40;99.90
51839;DHT22;37886;53.174;6.368;2023-02-01T12:57:20;8.50;99.90
51839;DHT22;37886;53.174;6.368;2023-02-01T12:59:56;8.50;99.90
51839;DHT22;37886;53.174;6.368;2023-02-01T13:02:41;8.40;99.90
51839;DHT22;37886;53.174;6.368;2023-02-01T13:05:18;8.40;99.90
51839;DHT22;37886;53.174;6.368;2023-02-01T13:08:02;8.40;99.90
51839;DHT22;37886;53.174;6.368;2023-02-01T13:10:58;8.50;99.90
51839;DHT22;37886;53.174;6.368;2023-02-01T13:13:35;8.60;99.90
51839;DHT22;37886;53.174;6.368;2023-02-01T13:16:37;8.50;99.90
51839;DHT22;37886;53.174;6.368;2023-02-01T13:19:22;8.50;99.90
51839;DHT22;37886;53.174;6.368;2023-02-01T13:21:57;8.40;99.90
51839;DHT22;37886;53.174;6.368;2023-02-01T13:27:01;8.30;99.90
51839;DHT22;37886;53.174;6.368;2023-02-01T13:29:28;8.30;99.90
51839;DHT22;37886;53.174;6.368;2023-02-01T13:32:22;8.30;99.90
51839;DHT22;37886;53.174;6.368;2023-02-01T13:40:23;8.30;99.90
51839;DHT22;37886;53.174;6.368;2023-02-01T13:42:55;8.40;99.90
51839;DHT22;37886;53.174;6.368;2023-02-01T13:45:26;8.30;99.90
51839;DHT22;37886;53.174;6.368;2023-02-01T13:47:54;8.30;99.90
51839;DHT22;37886;53.174;6.368;2023-02-01T13:50:40;8.30;99.90
51839;DHT22;37886;53.174;6.368;2023-02-01T13:55:40;8.30;99.90
51839;DHT22;37886;53.174;6.368;2023-02-01T13:58:22;8.30;99.90
51839;DHT22;37886;53.174;6.368;2023-02-01T14:03:52;8.20;99.90
51839;DHT22;37886;53.174;6.368;2023-02-01T14:09:15;8.30;99.90
51839;DHT22;37886;53.174;6.368;2023-02-01T14:11:51;8.20;99.90
51839;DHT22;37886;53.174;6.368;2023-02-01T14:19:37;8.20;99.90
51839;DHT22;37886;53.174;6.368;2023-02-01T14:24:57;8.20;99.90
51839;DHT22;37886;53.174;6.368;2023-02-01T14:27:25;8.20;99.90
51839;DHT22;37886;53.174;6.368;2023-02-01T14:30:04;8.20;99.90
51839;DHT22;37886;53.174;6.368;2023-02-01T14:32:36;8.20;99.90
51839;DHT22;37886;53.174;6.368;2023-02-01T14:35:07;8.30;99.90
51839;DHT22;37886;53.174;6.368;2023-02-01T14:37:38;8.20;99.90
51839;DHT22;37886;53.174;6.368;2023-02-01T14:47:44;8.30;99.90
51839;DHT22;37886;53.174;6.368;2023-02-01T14:55:42;8.20;99.90
51839;DHT22;37886;53.174;6.368;2023-02-01T15:00:55;8.10;99.90
51839;DHT22;37886;53.174;6.368;2023-02-01T15:06:02;8.10;99.90
51839;DHT22;37886;53.174;6.368;2023-02-01T15:08:35;8.10;99.90
51839;DHT22;37886;53.174;6.368;2023-02-01T15:11:08;8.10;99.90
51839;DHT22;37886;53.174;6.368;2023-02-01T15:13:37;8.10;99.90
51839;DHT22;37886;53.174;6.368;2023-02-01T15:16:15;8.10;99.90
51839;DHT22;37886;53.174;6.368;2023-02-01T15:18:41;8.10;99.90
51839;DHT22;37886;53.174;6.368;2023-02-01T15:21:16;8.10;99.90
51839;DHT22;37886;53.174;6.368;2023-02-01T15:23:42;8.00;99.90
51839;DHT22;37886;53.174;6.368;2023-02-01T15:26:08;8.00;99.90
51839;DHT22;37886;53.174;6.368;2023-02-01T15:28:34;8.00;99.90
51839;DHT22;37886;53.174;6.368;2023-02-01T15:31:05;7.90;99.90
51839;DHT22;37886;53.174;6.368;2023-02-01T15:33:31;7.90;99.90
51839;DHT22;37886;53.174;6.368;2023-02-01T15:36:09;7.80;99.90
51839;DHT22;37886;53.174;6.368;2023-02-01T15:38:39;7.70;99.90
51839;DHT22;37886;53.174;6.368;2023-02-01T15:41:17;7.60;99.90
51839;DHT22;37886;53.174;6.368;2023-02-01T15:46:16;7.60;99.90
51839;DHT22;37886;53.174;6.368;2023-02-01T15:48:46;7.60;99.90
51839;DHT22;37886;53.174;6.368;2023-02-01T15:51:25;7.70;99.90
51839;DHT22;37886;53.174;6.368;2023-02-01T15:54:01;7.70;99.90
51839;DHT22;37886;53.174;6.368;2023-02-01T15:56:33;7.50;99.90
51839;DHT22;37886;53.174;6.368;2023-02-01T15:59:02;7.50;99.90
51839;DHT22;37886;53.174;6.368;2023-02-01T16:01:30;7.50;99.90
51839;DHT22;37886;53.174;6.368;2023-02-01T16:04:24;7.50;99.90
51839;DHT22;37886;53.174;6.368;2023-02-01T16:06:56;7.30;99.90
51839;DHT22;37886;53.174;6.368;2023-02-01T16:09:24;7.40;99.90
51839;DHT22;37886;53.174;6.368;2023-02-01T16:11:58;7.30;99.90
51839;DHT22;37886;53.174;6.368;2023-02-01T16:14:24;7.30;99.90
51839;DHT22;37886;53.174;6.368;2023-02-01T16:16:52;7.30;99.90
51839;DHT22;37886;53.174;6.368;2023-02-01T16:19:18;7.20;99.90
51839;DHT22;37886;53.174;6.368;2023-02-01T16:21:45;7.20;99.90
51839;DHT22;37886;53.174;6.368;2023-02-01T16:24:11;7.20;99.90
51839;DHT22;37886;53.174;6.368;2023-02-01T16:26:36;7.10;99.90
51839;DHT22;37886;53.174;6.368;2023-02-01T16:29:04;7.20;99.90
51839;DHT22;37886;53.174;6.368;2023-02-01T16:31:36;7.10;99.90
51839;DHT22;37886;53.174;6.368;2023-02-01T16:34:04;7.10;99.90
51839;DHT22;37886;53.174;6.368;2023-02-01T16:36:31;7.00;99.90
51839;DHT22;37886;53.174;6.368;2023-02-01T16:38:57;7.00;99.90
51839;DHT22;37886;53.174;6.368;2023-02-01T16:41:24;7.00;99.90
51839;DHT22;37886;53.174;6.368;2023-02-01T16:43:52;7.00;99.90
51839;DHT22;37886;53.174;6.368;2023-02-01T16:46:20;6.90;99.90
51839;DHT22;37886;53.174;6.368;2023-02-01T16:49:18;6.90;99.90
51839;DHT22;37886;53.174;6.368;2023-02-01T16:51:44;6.80;99.90
51839;DHT22;37886;53.174;6.368;2023-02-01T16:54:10;6.90;99.90
51839;DHT22;37886;53.174;6.368;2023-02-01T16:56:37;6.90;99.90
51839;DHT22;37886;53.174;6.368;2023-02-01T16:59:06;6.90;99.90
51839;DHT22;37886;53.174;6.368;2023-02-01T17:01:33;6.80;99.90
51839;DHT22;37886;53.174;6.368;2023-02-01T17:03:59;6.80;99.90
51839;DHT22;37886;53.174;6.368;2023-02-01T17:06:26;6.80;99.90
51839;DHT22;37886;53.174;6.368;2023-02-01T17:08:55;6.90;99.90
51839;DHT22;37886;53.174;6.368;2023-02-01T17:11:23;6.90;99.90
51839;DHT22;37886;53.174;6.368;2023-02-01T17:13:49;6.90;99.90
51839;DHT22;37886;53.174;6.368;2023-02-01T17:18:55;6.90;99.90
51839;DHT22;37886;53.174;6.368;2023-02-01T17:21:24;6.80;99.90
51839;DHT22;37886;53.174;6.368;2023-02-01T17:23:50;6.90;99.90
51839;DHT22;37886;53.174;6.368;2023-02-01T17:26:18;6.90;99.90
51839;DHT22;37886;53.174;6.368;2023-02-01T17:28:46;6.90;99.90
51839;DHT22;37886;53.174;6.368;2023-02-01T17:31:13;6.80;99.90
51839;DHT22;37886;53.174;6.368;2023-02-01T17:33:40;6.90;99.90
51839;DHT22;37886;53.174;6.368;2023-02-01T17:36:08;6.80;99.90
51839;DHT22;37886;53.174;6.368;2023-02-01T17:38:35;6.80;99.90
51839;DHT22;37886;53.174;6.368;2023-02-01T17:41:01;6.80;99.90
51839;DHT22;37886;53.174;6.368;2023-02-01T17:43:26;6.90;99.90
51839;DHT22;37886;53.174;6.368;2023-02-01T17:46:09;6.80;99.90
51839;DHT22;37886;53.174;6.368;2023-02-01T17:48:38;6.80;99.90
51839;DHT22;37886;53.174;6.368;2023-02-01T17:51:04;6.70;99.90
51839;DHT22;37886;53.174;6.368;2023-02-01T17:53:30;6.70;99.90
51839;DHT22;37886;53.174;6.368;2023-02-01T17:55:58;6.70;99.90
51839;DHT22;37886;53.174;6.368;2023-02-01T17:58:27;6.60;99.90
51839;DHT22;37886;53.174;6.368;2023-02-01T18:00:57;6.60;99.90
51839;DHT22;37886;53.174;6.368;2023-02-01T18:03:28;6.50;99.90
51839;DHT22;37886;53.174;6.368;2023-02-01T18:05:56;6.60;99.90
51839;DHT22;37886;53.174;6.368;2023-02-01T18:08:28;6.50;99.90
51839;DHT22;37886;53.174;6.368;2023-02-01T18:10:59;6.70;99.90
51839;DHT22;37886;53.174;6.368;2023-02-01T18:13:26;6.70;99.90
51839;DHT22;37886;53.174;6.368;2023-02-01T18:15:52;6.70;99.90
51839;DHT22;37886;53.174;6.368;2023-02-01T18:18:17;6.80;99.90
51839;DHT22;37886;53.174;6.368;2023-02-01T18:20:44;6.70;99.90
51839;DHT22;37886;53.174;6.368;2023-02-01T18:23:24;6.70;99.90
51839;DHT22;37886;53.174;6.368;2023-02-01T18:25:51;6.80;99.90
51839;DHT22;37886;53.174;6.368;2023-02-01T18:28:17;6.90;99.90
51839;DHT22;37886;53.174;6.368;2023-02-01T18:30:46;6.90;99.90